Time;durP1;ratioP1;P1;durP2;ratioP2;P2;SDS_P1;SDS_P2;PMS_P1;PMS_P2;Temp;Humidity;BMP_temperature;BMP_pressure;BME280_temperature;BME280_humidity;BME280_pressure;Samples;Min_cycle;Max_cycle;Signal;HPM_P1;HPM_P2
2021/12/13 00:01:45;;;;;;;29.92;19.88;;;;;;;;;;6252269;28;19921;-65
2021/12/13 00:04:50;;;;;;;34.20;20.70;;;;;;;;;;6264831;28;20135;-65
2021/12/13 00:07:59;;;;;;;31.58;20.30;;;;;;;;;;6252871;28;20176;-65
2021/12/13 00:11:08;;;;;;;31.30;19.92;;;;;;;;;;6256208;28;20586;-65
2021/12/13 00:14:13;;;;;;;32.60;20.88;;;;;;;;;;6266499;28;20045;-65
2021/12/13 00:17:19;;;;;;;28.80;19.85;;;;;;;;;;6247323;28;20052;-65
2021/12/13 00:20:27;;;;;;;30.10;19.60;;;;;;;;;;6255531;28;20037;-65
2021/12/13 00:23:33;;;;;;;35.67;21.23;;;;;;;;;;6259367;28;20481;-67
2021/12/13 00:26:38;;;;;;;62.22;34.22;;;;;;;;;;6255176;28;20190;-66
2021/12/13 00:29:46;;;;;;;69.95;37.20;;;;;;;;;;6267348;28;20122;-66
2021/12/13 00:32:54;;;;;;;92.35;42.88;;;;;;;;;;6247237;28;20072;-66
2021/12/13 00:36:01;;;;;;;59.53;30.95;;;;;;;;;;6248634;28;20404;-66
2021/12/13 00:39:10;;;;;;;35.15;21.48;;;;;;;;;;6266538;28;20712;-66
2021/12/13 00:42:13;;;;;;;29.55;20.02;;;;;;;;;;6256003;28;20394;-65
2021/12/13 00:45:18;;;;;;;26.95;18.20;;;;;;;;;;6258672;28;20045;-65
2021/12/13 00:48:20;;;;;;;26.20;18.17;;;;;;;;;;6254728;28;20179;-65
2021/12/13 00:51:27;;;;;;;30.05;18.77;;;;;;;;;;6253558;28;20082;-64
2021/12/13 00:54:32;;;;;;;29.00;18.58;;;;;;;;;;6266174;28;20059;-64
2021/12/13 00:57:42;;;;;;;28.52;19.05;;;;;;;;;;6254672;28;20053;-65
2021/12/13 01:00:47;;;;;;;31.33;19.52;;;;;;;;;;6249564;28;20047;-65
2021/12/13 01:03:50;;;;;;;27.13;18.02;;;;;;;;;;6253533;28;20079;-65
2021/12/13 01:07:25;;;;;;;28.73;19.13;;;;;;;;;;6251915;28;20048;-65
2021/12/13 01:11:05;;;;;;;30.60;18.88;;;;;;;;;;6248838;28;20984;-65
2021/12/13 01:14:19;;;;;;;24.77;17.45;;;;;;;;;;6261925;28;20075;-65
2021/12/13 01:17:35;;;;;;;26.53;18.07;;;;;;;;;;6243358;28;20040;-64
2021/12/13 01:20:55;;;;;;;27.33;17.83;;;;;;;;;;6251015;28;20459;-65
2021/12/13 01:24:05;;;;;;;27.52;17.23;;;;;;;;;;6265628;28;20033;-65
2021/12/13 01:27:08;;;;;;;26.77;18.45;;;;;;;;;;6253128;28;20075;-65
2021/12/13 01:30:13;;;;;;;30.08;18.65;;;;;;;;;;6259686;28;20469;-65
2021/12/13 01:33:15;;;;;;;;;;;;;;;;;;6254604;28;20063;-65
2021/12/13 01:36:22;;;;;;;26.13;18.52;;;;;;;;;;6250333;28;20442;-65
2021/12/13 01:39:26;;;;;;;25.88;17.63;;;;;;;;;;6261664;28;20079;-65
2021/12/13 01:42:30;;;;;;;26.70;17.80;;;;;;;;;;6252265;28;20048;-64
2021/12/13 01:45:34;;;;;;;27.45;17.85;;;;;;;;;;6245433;28;20040;-65
2021/12/13 01:48:41;;;;;;;28.17;18.33;;;;;;;;;;6256694;28;20615;-65
2021/12/13 01:51:43;;;;;;;28.25;18.33;;;;;;;;;;6248403;28;20404;-64
2021/12/13 01:54:45;;;;;;;25.98;18.25;;;;;;;;;;6268606;28;20037;-64
2021/12/13 01:57:53;;;;;;;26.88;17.90;;;;;;;;;;6257603;28;20037;-64
2021/12/13 02:01:09;;;;;;;27.55;17.67;;;;;;;;;;6250577;28;20906;-65
2021/12/13 02:04:14;;;;;;;25.05;18.30;;;;;;;;;;6260240;28;20055;-64
2021/12/13 02:07:15;;;;;;;29.73;17.92;;;;;;;;;;6251311;28;20049;-65
2021/12/13 02:10:23;;;;;;;29.15;18.83;;;;;;;;;;6253836;28;20053;-64
2021/12/13 02:13:33;;;;;;;26.95;17.55;;;;;;;;;;6261764;28;20049;-64
2021/12/13 02:16:58;;;;;;;25.33;17.05;;;;;;;;;;6247143;28;20048;-64
2021/12/13 02:20:06;;;;;;;30.38;18.10;;;;;;;;;;6262601;28;20162;-64
2021/12/13 02:23:09;;;;;;;33.50;18.05;;;;;;;;;;6258096;28;20508;-65
2021/12/13 02:26:11;;;;;;;27.05;17.65;;;;;;;;;;6252970;28;20172;-64
2021/12/13 02:29:17;;;;;;;30.67;17.25;;;;;;;;;;6265060;28;20053;-64
2021/12/13 02:32:19;;;;;;;27.10;17.88;;;;;;;;;;6245841;28;20091;-65
2021/12/13 02:35:24;;;;;;;28.77;17.63;;;;;;;;;;6251545;28;20195;-65
2021/12/13 02:38:28;;;;;;;24.90;16.80;;;;;;;;;;6261623;28;20140;-64
2021/12/13 02:41:32;;;;;;;29.73;17.33;;;;;;;;;;6253007;28;20056;-64
2021/12/13 02:44:43;;;;;;;29.20;17.65;;;;;;;;;;6261615;28;20098;-64
2021/12/13 02:47:56;;;;;;;25.20;17.52;;;;;;;;;;6246031;28;20127;-64
2021/12/13 02:51:02;;;;;;;31.70;17.10;;;;;;;;;;6250550;28;20040;-64
2021/12/13 02:54:09;;;;;;;26.48;17.30;;;;;;;;;;6260172;28;20094;-65
2021/12/13 02:57:16;;;;;;;24.10;16.83;;;;;;;;;;6256664;28;20134;-64
2021/12/13 03:00:20;;;;;;;27.67;18.25;;;;;;;;;;6254043;28;20037;-65
2021/12/13 03:03:26;;;;;;;27.83;16.65;;;;;;;;;;6257493;28;20045;-64
2021/12/13 03:06:32;;;;;;;27.02;17.83;;;;;;;;;;6253406;28;20052;-65
2021/12/13 03:09:38;;;;;;;24.10;16.90;;;;;;;;;;6260179;28;20052;-65
2021/12/13 03:12:40;;;;;;;25.60;17.70;;;;;;;;;;6251951;28;20148;-64
2021/12/13 03:15:45;;;;;;;23.88;16.23;;;;;;;;;;6245858;28;20045;-65
2021/12/13 03:18:51;;;;;;;26.75;18.95;;;;;;;;;;6258307;28;20049;-65
2021/12/13 03:22:23;;;;;;;27.88;17.33;;;;;;;;;;6249787;28;20059;-64
2021/12/13 03:25:34;;;;;;;25.85;17.13;;;;;;;;;;6235801;28;20048;-64
2021/12/13 03:28:50;;;;;;;27.77;17.45;;;;;;;;;;6263553;28;20491;-65
2021/12/13 03:31:55;;;;;;;26.45;17.50;;;;;;;;;;6243047;28;20140;-65
2021/12/13 03:34:58;;;;;;;;;;;;;;;;;;6258701;28;20068;-64
2021/12/13 03:38:04;;;;;;;25.67;16.65;;;;;;;;;;6254430;28;19921;-65
2021/12/13 03:41:11;;;;;;;25.55;16.75;;;;;;;;;;6255530;28;21517;-65
2021/12/13 03:44:20;;;;;;;23.60;15.85;;;;;;;;;;6266792;28;20131;-64
2021/12/13 03:47:26;;;;;;;23.60;16.38;;;;;;;;;;6248573;28;20049;-65
2021/12/13 03:50:31;;;;;;;24.00;16.63;;;;;;;;;;6257218;28;21446;-65
2021/12/13 03:53:34;;;;;;;25.85;17.30;;;;;;;;;;6265357;28;20186;-65
2021/12/13 03:56:41;;;;;;;26.53;16.73;;;;;;;;;;6256854;28;20053;-65
2021/12/13 03:59:45;;;;;;;26.33;18.00;;;;;;;;;;6264003;28;20532;-65
2021/12/13 04:02:48;;;;;;;26.42;17.02;;;;;;;;;;6248049;28;20049;-64
2021/12/13 04:05:50;;;;;;;26.30;17.45;;;;;;;;;;6254197;28;20311;-65
2021/12/13 04:08:54;;;;;;;28.38;18.52;;;;;;;;;;6263693;28;20524;-64
2021/12/13 04:12:00;;;;;;;28.30;16.65;;;;;;;;;;6255101;28;20191;-65
2021/12/13 04:15:15;;;;;;;25.15;17.08;;;;;;;;;;6265327;28;20049;-65
2021/12/13 04:18:41;;;;;;;25.92;17.13;;;;;;;;;;6255394;28;20037;-64
2021/12/13 04:21:46;;;;;;;24.33;16.77;;;;;;;;;;6252726;28;20183;-64
2021/12/13 04:24:50;;;;;;;34.00;20.30;;;;;;;;;;6265907;28;20064;-64
2021/12/13 04:27:59;;;;;;;25.58;18.23;;;;;;;;;;6254588;28;20450;-64
2021/12/13 04:31:04;;;;;;;27.77;19.15;;;;;;;;;;6249766;28;20049;-65
2021/12/13 04:34:06;;;;;;;26.85;18.77;;;;;;;;;;6261444;28;20049;-65
2021/12/13 04:37:11;;;;;;;27.80;19.08;;;;;;;;;;6253043;28;20064;-65
2021/12/13 04:40:17;;;;;;;31.70;20.90;;;;;;;;;;6256713;28;20623;-65
2021/12/13 04:43:21;;;;;;;30.52;20.17;;;;;;;;;;6264521;28;20045;-64
2021/12/13 04:46:22;;;;;;;29.77;19.00;;;;;;;;;;6250911;28;20064;-65
2021/12/13 04:49:26;;;;;;;30.60;20.05;;;;;;;;;;6259915;28;20072;-64
2021/12/13 04:52:28;;;;;;;31.30;20.95;;;;;;;;;;6252374;28;20048;-64
2021/12/13 04:55:33;;;;;;;29.83;20.15;;;;;;;;;;6253248;28;20168;-65
2021/12/13 04:58:36;;;;;;;29.27;20.52;;;;;;;;;;6265630;28;20045;-65
2021/12/13 05:01:38;;;;;;;32.22;20.65;;;;;;;;;;6245154;28;20041;-65
2021/12/13 05:04:40;;;;;;;31.45;21.13;;;;;;;;;;6260349;28;20164;-64
2021/12/13 05:07:42;;;;;;;29.25;20.77;;;;;;;;;;6249847;28;20174;-64
2021/12/13 05:10:48;;;;;;;30.85;21.15;;;;;;;;;;6252489;28;20040;-65
2021/12/13 05:13:53;;;;;;;28.80;20.35;;;;;;;;;;6263284;28;20592;-65
2021/12/13 05:16:58;;;;;;;33.83;21.55;;;;;;;;;;6248043;28;20048;-65
2021/12/13 05:20:13;;;;;;;30.88;21.20;;;;;;;;;;6258753;28;20049;-65
2021/12/13 05:23:20;;;;;;;33.92;20.80;;;;;;;;;;6258881;28;20102;-65
2021/12/13 05:26:31;;;;;;;28.25;19.65;;;;;;;;;;6254230;28;20174;-65
2021/12/13 05:29:37;;;;;;;27.63;19.45;;;;;;;;;;6264279;28;20067;-65
2021/12/13 05:32:42;;;;;;;33.10;19.35;;;;;;;;;;6246701;28;20118;-65
2021/12/13 05:35:46;;;;;;;28.23;19.38;;;;;;;;;;6251070;28;20053;-65
2021/12/13 05:38:50;;;;;;;31.30;19.38;;;;;;;;;;6262328;28;20093;-64
2021/12/13 05:41:54;;;;;;;26.33;18.77;;;;;;;;;;6253165;28;20045;-65
2021/12/13 05:44:58;;;;;;;27.52;19.17;;;;;;;;;;6265886;28;20451;-64
2021/12/13 05:48:01;;;;;;;33.30;19.77;;;;;;;;;;6248733;28;20128;-65
2021/12/13 05:51:07;;;;;;;29.85;19.23;;;;;;;;;;6250415;28;20065;-65
2021/12/13 05:54:12;;;;;;;26.65;18.80;;;;;;;;;;6254664;28;20049;-65
2021/12/13 05:57:17;;;;;;;30.35;19.52;;;;;;;;;;6252505;28;20140;-65
2021/12/13 06:00:23;;;;;;;26.90;18.67;;;;;;;;;;6253267;28;20078;-65
2021/12/13 06:03:31;;;;;;;28.63;18.30;;;;;;;;;;6254786;28;20059;-65
2021/12/13 06:06:34;;;;;;;26.58;18.40;;;;;;;;;;6250669;28;20128;-65
2021/12/13 06:09:46;;;;;;;27.52;18.10;;;;;;;;;;6261527;28;20041;-65
2021/12/13 06:12:50;;;;;;;29.38;18.55;;;;;;;;;;6253429;28;20040;-65
2021/12/13 06:15:57;;;;;;;31.50;18.45;;;;;;;;;;6249735;28;20198;-64
2021/12/13 06:19:03;;;;;;;23.48;16.77;;;;;;;;;;6257438;28;20396;-65
2021/12/13 06:22:10;;;;;;;30.30;17.00;;;;;;;;;;6255953;28;20147;-65
2021/12/13 06:25:16;;;;;;;28.00;18.33;;;;;;;;;;6257634;28;20086;-65
2021/12/13 06:28:20;;;;;;;24.92;15.85;;;;;;;;;;6271766;28;20045;-64
2021/12/13 06:31:24;;;;;;;23.77;15.65;;;;;;;;;;6255243;28;20138;-64
2021/12/13 06:34:28;;;;;;;24.33;16.47;;;;;;;;;;6265661;28;20198;-64
2021/12/13 06:37:34;;;;;;;25.95;15.90;;;;;;;;;;6249357;28;20136;-65
2021/12/13 06:40:35;;;;;;;26.90;15.48;;;;;;;;;;6252224;28;20377;-64
2021/12/13 06:43:39;;;;;;;23.98;15.90;;;;;;;;;;6261756;28;20125;-64
2021/12/13 06:46:47;;;;;;;28.08;16.92;;;;;;;;;;6246853;28;20556;-65
2021/12/13 06:49:53;;;;;;;26.90;17.52;;;;;;;;;;6260800;28;20068;-65
2021/12/13 06:53:09;;;;;;;29.95;18.17;;;;;;;;;;6248843;28;20044;-65
2021/12/13 06:56:20;;;;;;;28.48;18.63;;;;;;;;;;6250820;28;20037;-65
2021/12/13 06:59:21;;;;;;;28.05;17.77;;;;;;;;;;6259416;28;20150;-65
2021/12/13 07:02:26;;;;;;;28.10;18.08;;;;;;;;;;6245511;28;20504;-66
2021/12/13 07:05:30;;;;;;;28.52;17.10;;;;;;;;;;6253941;28;21044;-66
2021/12/13 07:08:34;;;;;;;;;;;;;;;;;;6261312;28;20594;-65
2021/12/13 07:11:43;;;;;;;25.40;16.60;;;;;;;;;;6255593;28;19986;-65
2021/12/13 07:14:46;;;;;;;22.55;14.82;;;;;;;;;;6268083;28;20064;-65
2021/12/13 07:18:01;;;;;;;24.92;15.40;;;;;;;;;;6246784;28;20053;-65
2021/12/13 07:21:06;;;;;;;25.65;15.55;;;;;;;;;;6253083;28;20134;-64
2021/12/13 07:24:09;;;;;;;21.50;14.98;;;;;;;;;;6254066;28;20076;-65
2021/12/13 07:27:13;;;;;;;24.10;15.83;;;;;;;;;;6253951;28;20618;-65
2021/12/13 07:30:18;;;;;;;22.92;15.63;;;;;;;;;;6258848;28;20650;-65
2021/12/13 07:33:34;;;;;;;31.83;17.00;;;;;;;;;;6254798;28;20540;-65
2021/12/13 07:36:36;;;;;;;23.02;15.20;;;;;;;;;;6255320;28;20053;-65
2021/12/13 07:39:37;;;;;;;23.38;15.85;;;;;;;;;;6268032;28;20178;-65
2021/12/13 07:42:39;;;;;;;23.33;15.68;;;;;;;;;;6257401;28;20344;-65
2021/12/13 07:45:46;;;;;;;24.90;16.02;;;;;;;;;;6251863;28;20060;-66
2021/12/13 07:48:55;;;;;;;28.40;17.70;;;;;;;;;;6262605;28;20044;-65
2021/12/13 07:52:00;;;;;;;29.30;18.58;;;;;;;;;;6249783;28;20045;-65
2021/12/13 07:55:16;;;;;;;25.73;16.88;;;;;;;;;;6263465;28;20051;-65
2021/12/13 07:58:33;;;;;;;26.67;16.75;;;;;;;;;;6262000;28;20040;-65
2021/12/13 08:01:40;;;;;;;26.75;17.77;;;;;;;;;;6248504;28;20071;-65
2021/12/13 08:04:49;;;;;;;25.15;17.35;;;;;;;;;;6262404;28;20120;-66
2021/12/13 08:07:54;;;;;;;30.88;18.95;;;;;;;;;;6252219;28;20131;-66
2021/12/13 08:10:58;;;;;;;35.20;18.20;;;;;;;;;;6245226;28;20074;-65
2021/12/13 08:13:59;;;;;;;;;;;;;;;;;;6265696;28;20059;-65
2021/12/13 08:17:10;;;;;;;35.70;18.23;;;;;;;;;;6247775;28;20007;-66
2021/12/13 08:20:25;;;;;;;32.25;19.00;;;;;;;;;;6239985;28;20477;-66
2021/12/13 08:23:32;;;;;;;31.73;19.95;;;;;;;;;;6258711;28;20489;-66
2021/12/13 08:26:37;;;;;;;27.83;19.50;;;;;;;;;;6252992;28;20140;-66
2021/12/13 08:29:41;;;;;;;29.65;19.75;;;;;;;;;;6259032;28;20131;-66
2021/12/13 08:32:59;;;;;;;26.17;19.33;;;;;;;;;;6244892;28;20128;-66
2021/12/13 08:36:05;;;;;;;29.52;19.42;;;;;;;;;;6248235;28;20052;-65
2021/12/13 08:39:09;;;;;;;32.08;19.70;;;;;;;;;;6262730;28;20734;-66
2021/12/13 08:42:13;;;;;;;28.52;19.15;;;;;;;;;;6232200;28;20499;-66
2021/12/13 08:45:21;;;;;;;;;;;;;;;;;;6255248;28;20853;-66
2021/12/13 08:48:23;;;;;;;25.80;18.25;;;;;;;;;;6255553;28;20315;-66
2021/12/13 08:51:29;;;;;;;26.05;17.73;;;;;;;;;;6250505;28;20119;-66
2021/12/13 08:54:42;;;;;;;24.92;18.40;;;;;;;;;;6259781;28;20060;-66
2021/12/13 08:57:51;;;;;;;27.15;19.15;;;;;;;;;;6253794;28;20041;-66
2021/12/13 09:00:56;;;;;;;26.55;19.38;;;;;;;;;;6245408;28;20557;-66
2021/12/13 09:03:59;;;;;;;28.00;19.40;;;;;;;;;;6256707;28;20056;-66
2021/12/13 09:07:06;;;;;;;30.30;20.25;;;;;;;;;;6249687;28;20497;-66
2021/12/13 09:10:08;;;;;;;29.20;19.48;;;;;;;;;;6258947;28;20053;-66
2021/12/13 09:13:11;;;;;;;33.55;20.38;;;;;;;;;;6254832;28;20186;-66
2021/12/13 09:16:16;;;;;;;29.20;20.10;;;;;;;;;;6246307;28;20135;-66
2021/12/13 09:19:22;;;;;;;30.75;20.02;;;;;;;;;;6258871;28;20135;-66
2021/12/13 09:22:29;;;;;;;30.10;20.55;;;;;;;;;;6250363;28;20464;-66
2021/12/13 09:25:37;;;;;;;30.88;20.13;;;;;;;;;;6250877;28;20127;-66
2021/12/13 09:28:45;;;;;;;27.77;20.65;;;;;;;;;;6238262;28;21752;-66
2021/12/13 09:31:52;;;;;;;25.23;20.50;;;;;;;;;;6245808;28;20057;-66
2021/12/13 09:34:56;;;;;;;26.50;20.67;;;;;;;;;;6258554;28;20191;-66
2021/12/13 09:38:03;;;;;;;30.83;21.10;;;;;;;;;;6253594;28;20072;-66
2021/12/13 09:41:15;;;;;;;27.40;20.38;;;;;;;;;;6251929;28;20428;-66
2021/12/13 09:44:23;;;;;;;28.67;20.98;;;;;;;;;;6260754;28;20153;-66
2021/12/13 09:47:31;;;;;;;29.38;22.80;;;;;;;;;;6238729;28;20049;-66
2021/12/13 09:50:33;;;;;;;26.95;22.02;;;;;;;;;;6252742;28;20048;-66
2021/12/13 09:53:38;;;;;;;27.02;22.10;;;;;;;;;;6256304;28;20049;-66
2021/12/13 09:56:49;;;;;;;29.02;22.00;;;;;;;;;;6246789;28;21856;-66
2021/12/13 09:59:53;;;;;;;29.70;23.50;;;;;;;;;;6256220;28;20033;-67
2021/12/13 10:02:57;;;;;;;33.35;22.73;;;;;;;;;;6239049;28;20048;-68
2021/12/13 10:06:06;;;;;;;32.38;23.13;;;;;;;;;;6245215;28;20102;-65
2021/12/13 10:09:13;;;;;;;30.23;22.50;;;;;;;;;;6256230;28;20052;-66
2021/12/13 10:12:19;;;;;;;34.63;23.50;;;;;;;;;;6245979;28;20605;-66
2021/12/13 10:15:25;;;;;;;37.28;24.20;;;;;;;;;;6247510;28;20412;-66
2021/12/13 10:18:34;;;;;;;35.53;23.75;;;;;;;;;;6250673;28;20045;-66
2021/12/13 10:21:39;;;;;;;32.42;23.15;;;;;;;;;;6248206;28;20102;-66
2021/12/13 10:24:46;;;;;;;33.13;25.20;;;;;;;;;;6232270;28;20052;-65
2021/12/13 10:27:48;;;;;;;33.92;23.80;;;;;;;;;;6250514;28;20060;-66
2021/12/13 10:30:53;;;;;;;31.60;23.43;;;;;;;;;;6242503;28;20817;-65
2021/12/13 10:33:56;;;;;;;30.83;23.85;;;;;;;;;;6252366;28;20112;-65
2021/12/13 10:37:01;;;;;;;40.78;24.70;;;;;;;;;;6245280;28;20492;-66
2021/12/13 10:40:08;;;;;;;35.10;23.83;;;;;;;;;;6256659;28;20066;-65
2021/12/13 10:43:13;;;;;;;38.92;24.77;;;;;;;;;;6254537;28;20041;-65
2021/12/13 10:46:18;;;;;;;33.20;23.42;;;;;;;;;;6244843;28;20061;-65
2021/12/13 10:49:24;;;;;;;32.08;24.27;;;;;;;;;;6259788;28;20497;-66
2021/12/13 10:52:30;;;;;;;30.10;23.85;;;;;;;;;;6249675;28;20056;-66
2021/12/13 10:55:36;;;;;;;31.75;24.17;;;;;;;;;;6252380;28;20292;-65
2021/12/13 10:58:40;;;;;;;31.45;24.33;;;;;;;;;;6261807;28;20048;-66
2021/12/13 11:01:46;;;;;;;32.67;24.45;;;;;;;;;;6219768;28;20037;-66
2021/12/13 11:04:50;;;;;;;32.63;25.55;;;;;;;;;;6258889;28;20906;-66
2021/12/13 11:07:52;;;;;;;33.45;24.52;;;;;;;;;;6225319;28;20437;-65
2021/12/13 11:10:58;;;;;;;32.00;25.13;;;;;;;;;;6249648;28;20102;-66
2021/12/13 11:14:02;;;;;;;36.33;24.83;;;;;;;;;;6260036;28;20041;-66
2021/12/13 11:17:09;;;;;;;31.10;25.35;;;;;;;;;;6245892;28;20411;-66
2021/12/13 11:20:14;;;;;;;31.85;24.15;;;;;;;;;;6251268;28;20147;-67
2021/12/13 11:23:19;;;;;;;33.55;23.88;;;;;;;;;;6258231;28;20167;-66
2021/12/13 11:26:25;;;;;;;32.10;23.88;;;;;;;;;;6251462;28;20057;-66
2021/12/13 11:29:28;;;;;;;34.00;23.23;;;;;;;;;;6259961;28;20049;-66
2021/12/13 11:33:03;;;;;;;33.90;25.42;;;;;;;;;;6246946;28;20048;-66
2021/12/13 11:36:30;;;;;;;32.00;22.58;;;;;;;;;;6249000;28;20499;-66
2021/12/13 11:39:46;;;;;;;31.70;22.80;;;;;;;;;;6258614;28;20041;-66
2021/12/13 11:43:22;;;;;;;27.15;22.35;;;;;;;;;;6252236;28;20774;-65
2021/12/13 11:46:46;;;;;;;31.05;22.52;;;;;;;;;;6242783;28;20061;-66
2021/12/13 11:49:59;;;;;;;29.38;22.25;;;;;;;;;;6260126;28;20203;-65
2021/12/13 11:53:53;;;;;;;30.20;21.92;;;;;;;;;;6251578;28;20091;-65
2021/12/13 11:57:11;;;;;;;30.48;22.35;;;;;;;;;;6218504;28;20048;-65
2021/12/13 12:00:26;;;;;;;30.30;22.00;;;;;;;;;;6225303;28;20421;-67
2021/12/13 12:03:55;;;;;;;27.60;21.92;;;;;;;;;;6264820;28;20041;-67
2021/12/13 12:07:23;;;;;;;26.50;21.08;;;;;;;;;;6257135;28;20094;-66
2021/12/13 12:10:47;;;;;;;35.20;21.80;;;;;;;;;;6254420;28;20564;-67
2021/12/13 12:13:53;;;;;;;;;;;;;;;;;;6261961;28;20052;-67
2021/12/13 12:16:58;;;;;;;30.55;20.75;;;;;;;;;;6251028;28;19970;-66
2021/12/13 12:20:00;;;;;;;28.00;20.85;;;;;;;;;;6257530;28;20120;-66
2021/12/13 12:23:05;;;;;;;32.95;20.52;;;;;;;;;;6254608;28;20045;-66
2021/12/13 12:26:07;;;;;;;29.17;21.00;;;;;;;;;;6263044;28;21007;-66
2021/12/13 12:29:12;;;;;;;23.45;20.00;;;;;;;;;;6276817;28;20251;-66
2021/12/13 12:32:21;;;;;;;28.40;20.38;;;;;;;;;;6257661;28;20044;-66
2021/12/13 12:35:25;;;;;;;24.00;19.38;;;;;;;;;;6261235;28;20056;-67
2021/12/13 12:39:15;;;;;;;29.50;19.45;;;;;;;;;;6271843;28;20060;-66
2021/12/13 12:42:25;;;;;;;27.98;18.33;;;;;;;;;;6243145;28;20044;-65
2021/12/13 12:45:30;;;;;;;27.08;18.33;;;;;;;;;;6250523;28;20136;-66
2021/12/13 12:48:35;;;;;;;35.67;18.23;;;;;;;;;;6256546;28;20060;-65
2021/12/13 12:51:37;;;;;;;24.67;17.67;;;;;;;;;;6253128;28;20922;-65
2021/12/13 12:54:39;;;;;;;27.55;18.23;;;;;;;;;;6262531;28;20061;-65
2021/12/13 12:57:41;;;;;;;28.25;17.73;;;;;;;;;;6253502;28;20053;-65
2021/12/13 13:00:43;;;;;;;24.08;15.55;;;;;;;;;;6248364;28;20079;-65
2021/12/13 13:03:46;;;;;;;19.48;14.50;;;;;;;;;;6255674;28;20071;-66
2021/12/13 13:06:51;;;;;;;22.33;15.50;;;;;;;;;;6249965;28;20055;-65
2021/12/13 13:09:55;;;;;;;16.67;12.75;;;;;;;;;;6259096;28;20049;-65
2021/12/13 13:12:59;;;;;;;18.75;13.43;;;;;;;;;;6249747;28;20491;-66
2021/12/13 13:16:03;;;;;;;;;;;;;;;;;;6247998;28;20053;-65
2021/12/13 13:19:07;;;;;;;20.77;13.48;;;;;;;;;;6259426;28;19921;-65
2021/12/13 13:22:12;;;;;;;18.20;13.80;;;;;;;;;;6253374;28;20197;-65
2021/12/13 13:25:18;;;;;;;17.75;12.77;;;;;;;;;;6253637;28;20076;-66
2021/12/13 13:28:25;;;;;;;20.40;14.43;;;;;;;;;;6259427;28;20451;-65
2021/12/13 13:31:32;;;;;;;17.48;13.32;;;;;;;;;;6244926;28;20053;-66
2021/12/13 13:34:38;;;;;;;18.15;12.93;;;;;;;;;;6263491;28;20056;-66
2021/12/13 13:37:42;;;;;;;16.17;13.30;;;;;;;;;;6249323;28;20053;-66
2021/12/13 13:40:44;;;;;;;19.55;13.98;;;;;;;;;;6245680;28;20127;-66
2021/12/13 13:43:46;;;;;;;18.60;12.93;;;;;;;;;;6261047;28;20135;-66
2021/12/13 13:46:48;;;;;;;18.55;12.68;;;;;;;;;;6239844;28;20132;-66
2021/12/13 13:49:51;;;;;;;21.25;13.82;;;;;;;;;;6255227;28;20134;-66
2021/12/13 13:52:56;;;;;;;21.20;13.82;;;;;;;;;;6245296;28;20057;-66
2021/12/13 13:56:01;;;;;;;22.23;13.98;;;;;;;;;;6246245;28;20045;-66
2021/12/13 13:59:06;;;;;;;19.90;13.02;;;;;;;;;;6257793;28;20135;-67
2021/12/13 14:02:09;;;;;;;15.52;12.13;;;;;;;;;;6243725;28;20516;-67
2021/12/13 14:05:14;;;;;;;19.23;11.77;;;;;;;;;;6249523;28;20051;-67
2021/12/13 14:08:20;;;;;;;17.77;12.15;;;;;;;;;;6252485;28;20106;-67
2021/12/13 14:11:23;;;;;;;21.73;13.18;;;;;;;;;;6246046;28;20100;-67
2021/12/13 14:14:28;;;;;;;17.60;11.70;;;;;;;;;;6258690;28;20052;-66
2021/12/13 14:17:40;;;;;;;18.75;13.20;;;;;;;;;;6239586;28;20048;-66
2021/12/13 14:20:46;;;;;;;23.48;13.07;;;;;;;;;;6245800;28;21065;-67
2021/12/13 14:23:50;;;;;;;17.30;12.05;;;;;;;;;;6259745;28;20199;-67
2021/12/13 14:26:52;;;;;;;22.50;12.43;;;;;;;;;;6245405;28;20060;-67
2021/12/13 14:30:06;;;;;;;18.88;11.63;;;;;;;;;;6256928;28;20996;-66
2021/12/13 14:33:22;;;;;;;22.50;13.35;;;;;;;;;;6246018;28;20676;-67
2021/12/13 14:36:27;;;;;;;16.80;12.27;;;;;;;;;;6242730;28;20102;-66
2021/12/13 14:39:32;;;;;;;23.60;12.57;;;;;;;;;;6255894;28;20053;-71
2021/12/13 14:42:34;;;;;;;17.50;11.63;;;;;;;;;;6250228;28;20056;-66
2021/12/13 14:45:41;;;;;;;18.00;11.75;;;;;;;;;;6246818;28;20262;-67
2021/12/13 14:48:43;;;;;;;18.10;10.93;;;;;;;;;;6248812;28;20254;-66
2021/12/13 14:51:48;;;;;;;20.85;11.32;;;;;;;;;;6244718;28;20079;-67
2021/12/13 14:54:53;;;;;;;18.23;11.10;;;;;;;;;;6257046;28;20122;-66
2021/12/13 14:57:57;;;;;;;18.95;11.07;;;;;;;;;;6245498;28;20227;-67
2021/12/13 15:01:02;;;;;;;15.45;10.68;;;;;;;;;;6247979;28;20045;-66
2021/12/13 15:04:07;;;;;;;19.95;10.93;;;;;;;;;;6250820;28;20045;-67
2021/12/13 15:07:13;;;;;;;17.77;11.07;;;;;;;;;;6250005;28;20049;-66
2021/12/13 15:10:18;;;;;;;14.85;10.35;;;;;;;;;;6250498;28;20087;-66
2021/12/13 15:13:22;;;;;;;16.35;11.20;;;;;;;;;;6252268;28;20525;-66
2021/12/13 15:16:27;;;;;;;20.02;10.93;;;;;;;;;;6239905;28;20052;-66
2021/12/13 15:19:32;;;;;;;17.95;10.90;;;;;;;;;;6258556;28;20060;-66
2021/12/13 15:22:40;;;;;;;16.67;10.35;;;;;;;;;;6247513;28;20122;-66
2021/12/13 15:25:43;;;;;;;15.23;10.13;;;;;;;;;;6245418;28;20182;-67
2021/12/13 15:28:47;;;;;;;15.82;10.20;;;;;;;;;;6258043;28;20618;-66
2021/12/13 15:31:52;;;;;;;19.23;11.40;;;;;;;;;;6240484;28;20118;-66
2021/12/13 15:34:56;;;;;;;27.08;12.70;;;;;;;;;;6260426;28;20069;-65
2021/12/13 15:38:01;;;;;;;26.23;12.50;;;;;;;;;;6250727;28;20048;-65
2021/12/13 15:41:07;;;;;;;23.73;13.77;;;;;;;;;;6251259;28;20064;-65
2021/12/13 15:44:12;;;;;;;29.75;14.15;;;;;;;;;;6270374;28;20052;-66
2021/12/13 15:47:14;;;;;;;26.17;14.38;;;;;;;;;;6249073;28;20516;-66
2021/12/13 15:50:33;;;;;;;24.00;14.25;;;;;;;;;;6255516;28;20041;-66
2021/12/13 15:53:36;;;;;;;24.88;13.55;;;;;;;;;;6267364;28;20555;-66
2021/12/13 15:56:41;;;;;;;23.03;14.13;;;;;;;;;;6255506;28;20524;-65
2021/12/13 15:59:46;;;;;;;25.75;15.07;;;;;;;;;;6261605;28;20045;-66
2021/12/13 16:02:47;;;;;;;21.95;14.00;;;;;;;;;;6245710;28;20199;-66
2021/12/13 16:05:49;;;;;;;21.13;13.90;;;;;;;;;;6251743;28;20868;-66
2021/12/13 16:08:55;;;;;;;29.20;14.25;;;;;;;;;;6263014;28;20144;-65
2021/12/13 16:11:59;;;;;;;28.38;15.13;;;;;;;;;;6252613;28;20064;-65
2021/12/13 16:15:05;;;;;;;26.88;15.18;;;;;;;;;;6266112;28;20662;-65
2021/12/13 16:18:10;;;;;;;23.15;14.60;;;;;;;;;;6253971;28;20578;-65
2021/12/13 16:21:20;;;;;;;29.95;14.85;;;;;;;;;;6256069;28;20552;-65
2021/12/13 16:24:24;;;;;;;24.98;14.95;;;;;;;;;;6267794;28;20094;-65
2021/12/13 16:27:26;;;;;;;26.27;15.88;;;;;;;;;;6259364;28;20045;-65
2021/12/13 16:30:30;;;;;;;28.55;15.88;;;;;;;;;;6255800;28;20043;-65
2021/12/13 16:33:39;;;;;;;29.33;15.55;;;;;;;;;;6262886;28;20062;-65
2021/12/13 16:36:44;;;;;;;23.23;15.15;;;;;;;;;;6253996;28;20120;-65
2021/12/13 16:39:49;;;;;;;25.90;15.27;;;;;;;;;;6268789;28;20057;-65
2021/12/13 16:42:56;;;;;;;26.00;16.52;;;;;;;;;;6258624;28;20049;-65
2021/12/13 16:45:59;;;;;;;27.67;15.80;;;;;;;;;;6254781;28;20040;-65
2021/12/13 16:49:07;;;;;;;29.10;15.90;;;;;;;;;;6254772;28;20412;-65
2021/12/13 16:52:11;;;;;;;30.25;16.77;;;;;;;;;;6256291;28;20048;-65
2021/12/13 16:55:16;;;;;;;31.02;18.23;;;;;;;;;;6262979;28;20445;-65
2021/12/13 16:58:18;;;;;;;33.58;18.55;;;;;;;;;;6264157;28;20045;-65
2021/12/13 17:01:23;;;;;;;31.15;19.65;;;;;;;;;;6248757;28;20476;-65
2021/12/13 17:04:27;;;;;;;29.88;19.63;;;;;;;;;;6263807;28;20090;-65
2021/12/13 17:07:31;;;;;;;26.73;18.63;;;;;;;;;;6250048;28;20599;-66
2021/12/13 17:10:36;;;;;;;29.73;19.73;;;;;;;;;;6248071;28;20048;-65
2021/12/13 17:13:42;;;;;;;28.98;19.70;;;;;;;;;;6259002;28;20149;-65
2021/12/13 17:16:53;;;;;;;28.05;18.58;;;;;;;;;;6244703;28;20041;-66
2021/12/13 17:19:58;;;;;;;31.40;19.42;;;;;;;;;;6259434;28;20072;-65
2021/12/13 17:23:20;;;;;;;26.30;20.70;;;;;;;;;;6253496;28;20049;-65
2021/12/13 17:26:33;;;;;;;28.45;20.70;;;;;;;;;;6249298;28;20056;-65
2021/12/13 17:29:46;;;;;;;31.42;20.30;;;;;;;;;;6258996;28;20045;-66
2021/12/13 17:32:50;;;;;;;31.38;22.77;;;;;;;;;;6237919;28;20057;-65
2021/12/13 17:35:51;;;;;;;36.20;22.30;;;;;;;;;;6247592;28;20379;-65
2021/12/13 17:38:57;;;;;;;31.80;22.20;;;;;;;;;;6252988;28;20064;-65
2021/12/13 17:42:03;;;;;;;31.42;22.50;;;;;;;;;;6249600;28;20498;-66
2021/12/13 17:45:20;;;;;;;31.15;22.77;;;;;;;;;;6259171;28;20579;-65
2021/12/13 17:48:26;;;;;;;31.73;23.35;;;;;;;;;;6251605;28;20140;-65
2021/12/13 17:51:29;;;;;;;39.58;24.40;;;;;;;;;;6248410;28;20049;-65
2021/12/13 17:54:45;;;;;;;35.25;24.48;;;;;;;;;;6259377;28;21045;-65
2021/12/13 17:57:51;;;;;;;30.80;22.48;;;;;;;;;;6249732;28;20175;-66
2021/12/13 18:00:56;;;;;;;34.38;23.52;;;;;;;;;;6243855;28;20136;-65
2021/12/13 18:04:04;;;;;;;33.05;23.10;;;;;;;;;;6251504;28;20067;-65
2021/12/13 18:07:07;;;;;;;35.33;24.50;;;;;;;;;;6251877;28;20144;-65
2021/12/13 18:10:11;;;;;;;34.33;23.85;;;;;;;;;;6252593;28;20082;-65